Childress Municipal Airport
KCDS : now visible

Airfield :











YOU CAN JOIN US ON...

 
LOGIN :

Register | Disclaimer

   EN    FR    IT 

 









Legend :    VFR   Marginal VFR   IFR   Intensive IFR   Very Intensive IFR
Visi :
Ceiling :
>= 8 km
>= 3000ft
5 to 8 km
1000 to 3000 ft
1500m to 5 km
500 to 1000 ft
800 to 1500m
200 to 500 ft
< 800m
< 200 ft
Symbols :   Thunderstorms  Fog  Heavy snow  Heavy precipitations  Wind > 20 kt






- Airport Elevation : 1954 ft


KCDS - Childress Municipal

CURRENT METAR :
  • 241725Z AUTO VRB05KT 10SM BKN018 18/13 A2981 RMK AO2 T01780133

EXPIRED METARs :
  • 241700Z AUTO 32004KT 10SM SCT014 17/13 A2982 RMK AO2 T01720128
  • 241615Z AUTO 30006KT 10SM FEW011 BKN018 16/13 A2983 RMK AO2 T01610128
  • 241600Z AUTO 30005KT 10SM SCT009 16/13 A2983 RMK AO2 T01560133
  • 241553Z AUTO 30005KT 10SM CLR 16/13 A2983 RMK AO2 SLP086 T01560133
  • 241511Z AUTO 29003KT 10SM SCT024 14/13 A2981 RMK AO2 T01440128
  • 241500Z AUTO 35003KT 10SM SCT011 SCT021 BKN027 14/13 A2981 RMK AO2 PRESFR T01440128
  • 241453Z AUTO 31005KT 10SM BKN011 BKN022 OVC026 14/13 A2982 RMK AO2 RAB05E44 SLP087 P0001 60003 T01440128 50020
  • 241444Z AUTO 30008KT 4SM BR BKN010 OVC022 14/13 A2983 RMK AO2 RAB05E44 P0001 T01390128

TAF KCDS
Valid from the 24 at 12:00 until the 25 at 12:00 UTC


241139Z 2412/2512 04011KT 6SM -SHRA SCT003 OVC090
FM241400 03011KT P6SM SCT003 BKN025
FM241700 05015KT P6SM SCT025 OVC100
FM250200 34015KT P6SM BKN060
KZFW FIR / North America



MET'MAP, your aeronautical weather chart ! - Copyright ORBIFLY December 2007 - Disclaimer

ORBIFLY MET'MAP TEAM :

Programming & Development : Alexandra Zaïnal
Original concept : Baudouin d'Aumeries
Technical & hardware support : Manuel Goepfert
Assistance : Marc-Olivier Méhu

Contact : metmap@orbifly.com




SOURCES & CREDITS :

   NOAA       Earth
Advisory